Terminal Aerodrome Forecast
Issued by NWS Cleveland, OH

Home | Current Version | Previous Version | Text Only | Print | Product List | Glossary Off
Versions: 1 2 3 4 5 6 7 8 9 10 11 12 13 14 15 16 17 18 19 20 21 22 23 24 25 26

867
FTUS41 KCLE 221006 AAC
TAFCLE
TAF AMD
KCLE 221006Z 2210/2312 23008KT P6SM BKN045
      TEMPO 2211/2213 6SM -SHRA BKN030
     FM221500 24010KT 6SM HZ BKN040
     FM221800 26012G18KT P6SM SCT045
     FM230100 23005KT P6SM SCT150
     FM230800 VRB02KT 6SM BR SCT200=

USA.gov is the U.S. government's official web portal to all federal, state and local government web resources and services.